Van, Turkey

1:44 AM EET on February 12, 2016 (GMT +0200)
Van | | Change Station
CLOSE
Current Station
Airport
Location: Van,
Elevation: 5453 ft
Nearby Weather Stations

Elev 5453 ft 38.47 °N, 43.35 °E | Updated 54 minutes ago

Partly Cloudy
Partly Cloudy
19 °F
Feels Like 13 °F
N
5
Wind Variable Wind from NE

Today
High -- | Low -- °F
--% Chance of Precip.
Yesterday
High -- | Low -- °F
Precip. -- in
Pressure 30.18 in
Visibility 6.2 miles
Clouds Few 4000 ft
Windchill 13 °F
Dew Point 16 °F
Humidity 86%
Rainfall 0.00 in
Snow Depth Not available.
6:01 AM 4:40 PM
Waxing Crescent, 15% visible
METAR LTCI 112250Z 05004KT 9999 FEW040 M07/M09 Q1022 NOSIG
Pressure 30.18 in
Visibility 6.2 miles
Clouds Few 4000 ft
Windchill 13 °F
Dew Point 16 °F
Humidity 86%
Rainfall 0.00 in
Snow Depth Not available.
6:01 AM 4:40 PM
Waxing Crescent, 15% visible
METAR LTCI 112250Z 05004KT 9999 FEW040 M07/M09 Q1022 NOSIG

10-Day Weather Forecast

Almanac

Astronomy

Feb. 12, 2016 Rise Set
Actual Time
Civil Twilight
Nautical Twilight
Astronomical Twilight
Moon
Length of Visible Light
Length of Day
Tomorrow will be .
, % of the Moon is Illuminated

Today's Extremes

Country Highs Country Lows

Community

WunderPhotos

Upload Photos

1,892,180 photos uploaded!

WunderBlog® & News

Nearby

Air Quality

  Air Quality AQ Index Pollutant
Not available.

Snow Depth

Station Depth Elevation

Earthquake Activity

City Distance Mag. Time & Date
Minimum magnitude displayed is 2.5.

Coastal Water Temperatures

Place Temperature

Stations

Nearby Weather Stations

Station Location Temp. Windchill Dew Point Humidity Wind Precip. Elev Updated Type